Pogue, Pennsylvania
Current Conditions -  °F | °C
As of 8:53 PM on Friday 19 Dec 2014 (Local Time) from KAOO Reporting Station
Scattered Clouds Scattered Clouds  
Wind Chill: 17°   Ceiling: Unl
Heat Index: 27°   Visibility: 10mi
Dew Point: 19°   Wind: 10mph
Humidity: 72%   Direction: 320°NW
Pressure: 30.21"   Gusts: NA
Location:  40.1654°N, 77.9842°W
Report Text: KAOO 200153Z AUTO 32009KT 10SM SCT025 M03/M07 A3021 RMK AO2 SLP250 T10281072
Loading
Personal Weather Stations






























Interactive Weather Map New forecast layout! Learn more

10-Day Weather Forecast

Advertisements
Track Severe Weather on mobile